Time;durP1;ratioP1;P1;durP2;ratioP2;P2;SDS_P1;SDS_P2;PMS_P1;PMS_P2;Temp;Humidity;BMP_temperature;BMP_pressure;BME280_temperature;BME280_humidity;BME280_pressure;Samples;Min_cycle;Max_cycle;Signal;HPM_P1;HPM_P2
2024/01/27 00:01:56;;;;;;;14.53;2.90;;;2.50;99.90;;;;;;4953295;28;20633;-82
2024/01/27 00:04:22;;;;;;;10.63;2.47;;;2.50;99.90;;;;;;4970694;28;20047;-84
2024/01/27 00:06:49;;;;;;;14.90;3.58;;;2.50;99.90;;;;;;4972423;28;20035;-85
2024/01/27 00:09:15;;;;;;;9.38;2.45;;;2.50;99.90;;;;;;4971082;28;20055;-83
2024/01/27 00:11:41;;;;;;;15.32;2.85;;;2.50;99.90;;;;;;4954290;28;20359;-86
2024/01/27 00:14:07;;;;;;;15.70;2.83;;;2.50;99.90;;;;;;4970596;28;20046;-81
2024/01/27 00:16:34;;;;;;;11.20;3.27;;;2.50;99.90;;;;;;4953692;28;20397;-86
2024/01/27 00:19:00;;;;;;;18.23;3.53;;;2.50;99.90;;;;;;4953949;28;20047;-84
2024/01/27 00:21:26;;;;;;;17.47;3.10;;;2.50;99.90;;;;;;4953917;28;20513;-85
2024/01/27 00:23:53;;;;;;;11.90;2.85;;;2.50;99.90;;;;;;4933330;28;20043;-85
2024/01/27 00:26:20;;;;;;;16.53;3.10;;;2.50;99.90;;;;;;4938107;28;20035;-83
2024/01/27 00:28:46;;;;;;;12.02;2.60;;;2.50;99.90;;;;;;4954134;28;20046;-83
2024/01/27 00:31:12;;;;;;;17.02;3.03;;;2.50;99.90;;;;;;4967679;28;20046;-85
2024/01/27 00:33:38;;;;;;;14.47;3.07;;;2.50;99.90;;;;;;4953455;28;20050;-84
2024/01/27 00:36:05;;;;;;;12.00;3.03;;;2.50;99.90;;;;;;4970594;28;20498;-83
2024/01/27 00:38:32;;;;;;;15.40;2.73;;;2.50;99.90;;;;;;4966794;28;20375;-84
2024/01/27 00:40:58;;;;;;;15.90;3.33;;;2.50;99.90;;;;;;4954317;28;20528;-85
2024/01/27 00:43:24;;;;;;;13.83;3.20;;;2.50;99.90;;;;;;4952065;28;20046;-85
2024/01/27 00:45:51;;;;;;;18.17;3.22;;;2.50;99.90;;;;;;4970596;28;20050;-83
2024/01/27 00:48:19;;;;;;;17.97;4.00;;;2.50;99.90;;;;;;4969835;28;20031;-81
2024/01/27 00:50:45;;;;;;;17.40;3.70;;;2.50;99.90;;;;;;4969667;28;20035;-82
2024/01/27 00:53:11;;;;;;;14.57;3.17;;;2.50;99.90;;;;;;4986385;28;20035;-86
2024/01/27 00:55:38;;;;;;;13.87;2.73;;;2.50;99.90;;;;;;4938160;28;20043;-85
2024/01/27 00:58:04;;;;;;;12.43;2.43;;;2.50;99.90;;;;;;4970108;28;20043;-82
2024/01/27 01:00:32;;;;;;;14.32;3.00;;;2.40;99.90;;;;;;4953916;28;20055;-83
2024/01/27 01:02:59;;;;;;;14.37;3.03;;;2.40;99.90;;;;;;4944029;28;20055;-85
2024/01/27 01:05:25;;;;;;;7.87;2.40;;;2.40;99.90;;;;;;4943992;28;20035;-84
2024/01/27 01:07:51;;;;;;;16.73;2.30;;;2.40;99.90;;;;;;4937035;28;20054;-81
2024/01/27 01:10:18;;;;;;;10.13;2.27;;;2.40;99.90;;;;;;4953647;28;20742;-84
2024/01/27 01:12:44;;;;;;;8.10;2.35;;;2.40;99.90;;;;;;4969962;28;20042;-84
2024/01/27 01:15:11;;;;;;;15.90;2.87;;;2.30;99.90;;;;;;4953928;28;20062;-86
2024/01/27 01:17:37;;;;;;;15.33;2.60;;;2.30;99.90;;;;;;4954245;28;20042;-86
2024/01/27 01:20:04;;;;;;;8.88;2.35;;;2.30;99.90;;;;;;4970387;28;20042;-81
2024/01/27 01:22:31;;;;;;;11.37;3.27;;;2.30;99.90;;;;;;4953522;28;20042;-86
2024/01/27 01:24:57;;;;;;;16.53;4.57;;;2.30;99.90;;;;;;4969239;28;20043;-83
2024/01/27 01:27:23;;;;;;;12.68;2.65;;;2.30;99.90;;;;;;4969540;28;20034;-85
2024/01/27 01:29:50;;;;;;;10.00;2.17;;;2.30;99.90;;;;;;4953504;28;20039;-81
2024/01/27 01:32:16;;;;;;;10.40;2.60;;;2.30;99.90;;;;;;4968589;28;20035;-85
2024/01/27 01:34:42;;;;;;;12.23;2.57;;;2.30;99.90;;;;;;4953546;28;20051;-86
2024/01/27 01:37:09;;;;;;;10.67;2.53;;;2.20;99.90;;;;;;4969028;28;20493;-85
2024/01/27 01:39:35;;;;;;;10.20;2.57;;;2.20;99.90;;;;;;4950948;28;20396;-84
2024/01/27 01:42:01;;;;;;;7.33;2.37;;;2.20;99.90;;;;;;4952370;28;20046;-80
2024/01/27 01:44:31;;;;;;;8.13;2.00;;;2.20;99.90;;;;;;4937644;28;20367;-85
2024/01/27 01:46:58;;;;;;;11.20;2.60;;;2.10;99.90;;;;;;4951886;28;20043;-84
2024/01/27 01:49:25;;;;;;;11.23;2.42;;;2.10;99.90;;;;;;4968836;28;20042;-84
2024/01/27 01:51:51;;;;;;;7.93;2.00;;;2.10;99.90;;;;;;4968664;28;20047;-86
2024/01/27 01:54:18;;;;;;;11.20;2.47;;;2.10;99.90;;;;;;4968195;28;20039;-84
2024/01/27 01:56:45;;;;;;;7.70;2.33;;;2.10;99.90;;;;;;4968554;28;20050;-81
2024/01/27 01:59:11;;;;;;;7.30;2.40;;;2.00;99.90;;;;;;4938016;29;20034;-85
2024/01/27 02:01:38;;;;;;;10.60;2.37;;;2.00;99.90;;;;;;4953190;28;20035;-85
2024/01/27 02:04:04;;;;;;;13.03;2.70;;;2.00;99.90;;;;;;4936214;28;20050;-84
2024/01/27 02:06:32;;;;;;;10.32;2.25;;;2.00;99.90;;;;;;4969362;28;20379;-87
2024/01/27 02:08:58;;;;;;;9.70;2.20;;;1.90;99.90;;;;;;4968034;28;20039;-82
2024/01/27 02:11:24;;;;;;;6.77;1.87;;;1.90;99.90;;;;;;4936677;28;20031;-84
2024/01/27 02:13:51;;;;;;;15.00;3.53;;;1.90;99.90;;;;;;4972343;28;20035;-85
2024/01/27 02:16:17;;;;;;;13.37;2.50;;;1.90;99.90;;;;;;4938372;28;20042;-85
2024/01/27 02:18:44;;;;;;;8.73;2.27;;;1.90;99.90;;;;;;4954836;28;20371;-84
2024/01/27 02:21:10;;;;;;;9.93;2.43;;;1.90;99.90;;;;;;4940831;28;20046;-84
2024/01/27 02:23:36;;;;;;;10.87;2.47;;;1.90;99.90;;;;;;4955926;28;20366;-84
2024/01/27 02:26:03;;;;;;;12.03;2.67;;;1.90;99.90;;;;;;4955987;28;20050;-85
2024/01/27 02:28:32;;;;;;;11.48;2.50;;;1.90;99.90;;;;;;4956692;28;20046;-85
2024/01/27 02:30:59;;;;;;;9.87;2.30;;;1.80;99.90;;;;;;4973391;28;20035;-85
2024/01/27 02:33:26;;;;;;;8.43;3.00;;;1.80;99.90;;;;;;4957226;28;20062;-85
2024/01/27 02:35:52;;;;;;;10.43;2.47;;;1.80;99.90;;;;;;4987198;28;20039;-84
2024/01/27 02:38:18;;;;;;;9.83;2.43;;;1.80;99.90;;;;;;4988369;28;20640;-85
2024/01/27 02:40:45;;;;;;;8.67;2.80;;;1.80;99.90;;;;;;4955928;28;20046;-86
2024/01/27 02:43:11;;;;;;;9.67;1.73;;;1.80;99.90;;;;;;4956162;28;20039;-85
2024/01/27 02:45:38;;;;;;;9.87;1.83;;;1.80;99.90;;;;;;4954980;28;20050;-85
2024/01/27 02:48:04;;;;;;;8.37;2.00;;;1.70;99.90;;;;;;4971343;28;20070;-84
2024/01/27 02:50:31;;;;;;;13.50;2.05;;;1.70;99.90;;;;;;4941837;28;20050;-87
2024/01/27 02:52:57;;;;;;;14.30;2.77;;;1.70;99.90;;;;;;4956046;28;20074;-85
2024/01/27 02:55:24;;;;;;;9.10;2.43;;;1.70;99.90;;;;;;4940525;28;20035;-83
2024/01/27 02:57:50;;;;;;;8.60;2.20;;;1.70;99.90;;;;;;4958476;28;20050;-81
2024/01/27 03:00:17;;;;;;;9.33;2.07;;;1.60;99.90;;;;;;4958965;28;20033;-86
2024/01/27 03:02:43;;;;;;;11.63;3.10;;;1.60;99.90;;;;;;4940796;28;20509;-84
2024/01/27 03:05:13;;;;;;;11.43;2.33;;;1.60;99.90;;;;;;4971539;28;20043;-85
2024/01/27 03:07:40;;;;;;;9.87;2.23;;;1.60;99.90;;;;;;4970097;28;20039;-84
2024/01/27 03:10:07;;;;;;;9.37;2.40;;;1.60;99.90;;;;;;4971889;28;20031;-85
2024/01/27 03:12:33;;;;;;;8.63;3.53;;;1.60;99.90;;;;;;4954656;28;20051;-81
2024/01/27 03:14:59;;;;;;;7.43;2.53;;;1.60;99.90;;;;;;4970180;28;20035;-84
2024/01/27 03:17:26;;;;;;;12.03;3.27;;;1.60;99.90;;;;;;4971969;28;20046;-85
2024/01/27 03:19:52;;;;;;;11.80;2.70;;;1.60;99.90;;;;;;4939522;28;20027;-87
2024/01/27 03:22:19;;;;;;;8.53;2.57;;;1.60;99.90;;;;;;4954594;28;20035;-85
2024/01/27 03:24:45;;;;;;;9.70;3.00;;;1.60;99.90;;;;;;4939713;28;20043;-81
2024/01/27 03:27:11;;;;;;;17.70;3.87;;;1.60;99.90;;;;;;4971769;28;20035;-85
2024/01/27 03:29:38;;;;;;;7.93;2.73;;;1.50;99.90;;;;;;4936589;28;20046;-86
2024/01/27 03:32:05;;;;;;;10.53;2.63;;;1.60;99.90;;;;;;4971662;28;20027;-85
2024/01/27 03:34:31;;;;;;;12.27;3.30;;;1.60;99.90;;;;;;4971848;28;20035;-86
2024/01/27 03:36:57;;;;;;;13.50;2.77;;;1.60;99.90;;;;;;4970671;28;20035;-85
2024/01/27 03:39:24;;;;;;;8.43;2.37;;;1.60;99.90;;;;;;4955294;28;20039;-86
2024/01/27 03:41:50;;;;;;;15.60;4.13;;;1.60;99.90;;;;;;4970722;28;20042;-83
2024/01/27 03:44:16;;;;;;;14.00;4.07;;;1.60;99.90;;;;;;4954985;28;20046;-83
2024/01/27 03:46:43;;;;;;;15.38;2.65;;;1.60;99.90;;;;;;4970803;28;20043;-84
2024/01/27 03:49:09;;;;;;;12.43;3.07;;;1.60;99.90;;;;;;4939072;28;20043;-81
2024/01/27 03:51:35;;;;;;;13.63;3.30;;;1.50;99.90;;;;;;4953914;28;20422;-84
2024/01/27 03:54:02;;;;;;;14.80;2.77;;;1.50;99.90;;;;;;4970808;28;20489;-84
2024/01/27 03:56:28;;;;;;;10.00;3.60;;;1.50;99.90;;;;;;4967893;28;20031;-85
2024/01/27 03:58:55;;;;;;;11.93;2.77;;;1.50;99.90;;;;;;4921624;29;20031;-85
2024/01/27 04:01:21;;;;;;;13.77;3.03;;;1.50;99.90;;;;;;4951577;28;20031;-82
2024/01/27 04:03:47;;;;;;;9.77;3.27;;;1.50;99.90;;;;;;4954469;28;21052;-82
2024/01/27 04:06:14;;;;;;;10.73;2.30;;;1.40;99.90;;;;;;4967801;28;20050;-86
2024/01/27 04:08:43;;;;;;;9.07;2.70;;;1.40;99.90;;;;;;4970798;28;20035;-85
2024/01/27 04:11:18;;;;;;;7.37;2.50;;;1.40;99.90;;;;;;4965965;28;20047;-83
2024/01/27 04:13:44;;;;;;;7.53;2.37;;;1.40;99.90;;;;;;4970872;28;20446;-80
2024/01/27 04:16:11;;;;;;;7.07;2.10;;;1.30;99.90;;;;;;4966569;28;20054;-83
2024/01/27 04:18:39;;;;;;;8.43;2.80;;;1.30;99.90;;;;;;4940134;28;20124;-83
2024/01/27 04:21:05;;;;;;;8.13;2.80;;;1.30;99.90;;;;;;4954677;28;20486;-85
2024/01/27 04:23:33;;;;;;;8.15;2.75;;;1.30;99.90;;;;;;4952307;28;20562;-81
2024/01/27 04:26:00;;;;;;;9.43;2.40;;;1.20;99.90;;;;;;4955028;28;20617;-83
2024/01/27 04:28:26;;;;;;;16.57;3.23;;;1.20;99.90;;;;;;4970737;28;20487;-84
2024/01/27 04:30:52;;;;;;;7.73;2.50;;;1.20;99.90;;;;;;4934805;28;20038;-80
2024/01/27 04:33:18;;;;;;;7.00;2.70;;;1.20;99.90;;;;;;4953587;28;20043;-84
2024/01/27 04:35:45;;;;;;;5.43;2.80;;;1.10;99.90;;;;;;4986912;28;20039;-85
2024/01/27 04:38:11;;;;;;;10.03;2.80;;;1.10;99.90;;;;;;4953833;28;20043;-84
2024/01/27 04:40:38;;;;;;;13.97;3.27;;;1.10;99.90;;;;;;4953817;28;20039;-85
2024/01/27 04:43:04;;;;;;;12.13;3.30;;;1.10;99.90;;;;;;4936548;28;20035;-84
2024/01/27 04:45:31;;;;;;;9.43;3.30;;;1.00;99.90;;;;;;4970347;28;20039;-83
2024/01/27 04:47:57;;;;;;;10.33;3.67;;;1.00;99.90;;;;;;4950893;28;20042;-85
2024/01/27 04:50:23;;;;;;;7.57;3.67;;;1.00;99.90;;;;;;4958038;28;20035;-83
2024/01/27 04:52:50;;;;;;;10.47;3.30;;;1.00;99.90;;;;;;4958743;28;20043;-83
2024/01/27 04:55:17;;;;;;;12.17;3.20;;;1.00;99.90;;;;;;4941137;28;20490;-83
2024/01/27 04:57:43;;;;;;;9.50;3.30;;;1.00;99.90;;;;;;4970952;28;20471;-84
2024/01/27 05:00:12;;;;;;;13.93;3.83;;;1.00;99.90;;;;;;4970480;28;20470;-83
2024/01/27 05:02:42;;;;;;;6.70;3.37;;;1.00;99.90;;;;;;4953962;28;20031;-85
2024/01/27 05:05:08;;;;;;;11.33;3.97;;;1.00;99.90;;;;;;4968334;28;20395;-84
2024/01/27 05:07:35;;;;;;;16.27;4.13;;;0.90;99.90;;;;;;4954139;28;20522;-81
2024/01/27 05:10:01;;;;;;;11.50;4.47;;;1.00;99.90;;;;;;4938811;28;20027;-83
2024/01/27 05:12:28;;;;;;;11.20;4.30;;;0.90;99.90;;;;;;4952668;28;20042;-84
2024/01/27 05:14:55;;;;;;;11.60;4.63;;;0.90;99.90;;;;;;4936165;28;20046;-84
2024/01/27 05:17:21;;;;;;;12.33;5.57;;;0.90;99.90;;;;;;4949595;28;20039;-84
2024/01/27 05:19:49;;;;;;;13.97;5.40;;;0.90;99.90;;;;;;4937962;28;20074;-84
2024/01/27 05:22:15;;;;;;;13.13;6.00;;;0.90;99.90;;;;;;4936253;28;20042;-83
2024/01/27 05:24:41;;;;;;;12.17;6.40;;;0.90;99.90;;;;;;4968136;28;20042;-83
2024/01/27 05:27:08;;;;;;;18.70;6.93;;;0.90;99.90;;;;;;4969075;28;20497;-80
2024/01/27 05:29:37;;;;;;;12.27;5.70;;;0.90;99.90;;;;;;4951910;28;20035;-84
2024/01/27 05:32:03;;;;;;;14.27;6.63;;;0.90;99.90;;;;;;4937920;28;20371;-83
2024/01/27 05:34:30;;;;;;;17.53;7.00;;;0.90;99.90;;;;;;4952232;28;20050;-81
2024/01/27 05:36:57;;;;;;;18.57;7.23;;;0.90;99.90;;;;;;4947798;28;20051;-84
2024/01/27 05:39:23;;;;;;;18.70;7.53;;;0.90;99.90;;;;;;4952977;28;20035;-82
2024/01/27 05:41:49;;;;;;;14.83;6.20;;;0.90;99.90;;;;;;4967932;28;20040;-80
2024/01/27 05:44:16;;;;;;;13.07;6.93;;;1.00;99.90;;;;;;4968354;28;20042;-82
2024/01/27 05:46:42;;;;;;;18.80;7.63;;;1.00;99.90;;;;;;4946793;28;20439;-83
2024/01/27 05:49:08;;;;;;;12.20;6.23;;;1.00;99.90;;;;;;4936353;28;20541;-83
2024/01/27 05:51:35;;;;;;;18.77;7.07;;;1.00;99.90;;;;;;4935301;28;20046;-83
2024/01/27 05:54:02;;;;;;;13.80;6.90;;;1.00;99.90;;;;;;4967509;28;20042;-83
2024/01/27 05:56:28;;;;;;;14.77;7.43;;;1.00;99.90;;;;;;4951807;28;20035;-80
2024/01/27 05:58:55;;;;;;;16.83;6.27;;;1.00;99.90;;;;;;4950700;28;20035;-83
2024/01/27 06:01:21;;;;;;;14.03;7.57;;;1.00;99.90;;;;;;4950757;28;20050;-83
2024/01/27 06:03:47;;;;;;;16.10;7.17;;;1.00;99.90;;;;;;4936070;28;20040;-82
2024/01/27 06:06:14;;;;;;;13.47;6.97;;;1.00;99.90;;;;;;4952076;28;20418;-83
2024/01/27 06:08:41;;;;;;;17.63;7.50;;;1.00;99.90;;;;;;4951299;28;20410;-80
2024/01/27 06:11:08;;;;;;;18.10;7.23;;;1.00;99.90;;;;;;4968844;28;20483;-82
2024/01/27 06:13:34;;;;;;;15.60;6.73;;;1.00;99.90;;;;;;4942464;28;20077;-83
2024/01/27 06:16:01;;;;;;;17.17;7.50;;;1.00;99.90;;;;;;4952669;28;20039;-83
2024/01/27 06:18:27;;;;;;;14.87;7.40;;;1.00;99.90;;;;;;4952952;28;20054;-81
2024/01/27 06:20:53;;;;;;;13.63;7.17;;;1.00;99.90;;;;;;4933830;28;20035;-83
2024/01/27 06:23:20;;;;;;;16.00;6.80;;;1.00;99.90;;;;;;4937945;28;20027;-82
2024/01/27 06:25:46;;;;;;;13.80;6.80;;;0.90;99.90;;;;;;4968236;28;20522;-81
2024/01/27 06:28:12;;;;;;;9.97;6.60;;;0.90;99.90;;;;;;4934360;28;20062;-85
2024/01/27 06:30:39;;;;;;;12.57;5.53;;;0.90;99.90;;;;;;4966147;28;20043;-81
2024/01/27 06:33:05;;;;;;;16.97;6.53;;;0.90;99.90;;;;;;4965364;28;21626;-83
2024/01/27 06:35:31;;;;;;;11.80;5.93;;;0.90;99.90;;;;;;4920141;28;20071;-83
2024/01/27 06:37:59;;;;;;;10.07;5.43;;;0.90;99.90;;;;;;4950768;28;20534;-82
2024/01/27 06:40:25;;;;;;;11.30;5.30;;;0.80;99.90;;;;;;4968152;28;20038;-80
2024/01/27 06:42:51;;;;;;;11.00;5.90;;;0.80;99.90;;;;;;4968122;28;20031;-83
2024/01/27 06:45:18;;;;;;;15.53;6.43;;;0.80;99.90;;;;;;4971630;28;20051;-84
2024/01/27 06:47:44;;;;;;;16.07;6.17;;;0.80;99.90;;;;;;4953085;28;20046;-82
2024/01/27 06:50:10;;;;;;;11.10;6.33;;;0.80;99.90;;;;;;4968699;28;20042;-80
2024/01/27 06:52:37;;;;;;;21.37;6.77;;;0.80;99.90;;;;;;4951248;28;20035;-82
2024/01/27 06:55:04;;;;;;;14.27;5.93;;;0.70;99.90;;;;;;4937812;28;20042;-83
2024/01/27 06:57:30;;;;;;;12.60;6.13;;;0.70;99.90;;;;;;4951211;28;20043;-81
2024/01/27 06:59:57;;;;;;;10.03;6.17;;;0.70;99.90;;;;;;4955445;28;20043;-81
2024/01/27 07:02:28;;;;;;;11.33;5.77;;;0.70;99.90;;;;;;4971478;28;20054;-82
2024/01/27 07:04:57;;;;;;;12.50;6.37;;;0.60;99.90;;;;;;4955080;28;20046;-82
2024/01/27 07:07:26;;;;;;;12.90;7.40;;;0.60;99.90;;;;;;4954266;28;20059;-83
2024/01/27 07:09:55;;;;;;;13.33;6.43;;;0.60;99.90;;;;;;4968434;28;20442;-81
2024/01/27 07:12:21;;;;;;;11.83;6.47;;;0.60;99.90;;;;;;4934633;28;20035;-82
2024/01/27 07:14:47;;;;;;;12.73;6.80;;;0.60;99.90;;;;;;4953902;28;20391;-81
2024/01/27 07:17:14;;;;;;;11.17;5.93;;;0.60;99.90;;;;;;4938968;28;20042;-83
2024/01/27 07:19:40;;;;;;;12.37;6.03;;;0.60;99.90;;;;;;4970349;28;20054;-81
2024/01/27 07:22:07;;;;;;;13.10;6.90;;;0.60;99.90;;;;;;4954330;28;20039;-83
2024/01/27 07:24:33;;;;;;;16.80;7.77;;;0.60;99.90;;;;;;4971321;28;20455;-81
2024/01/27 07:27:03;;;;;;;12.40;7.57;;;0.60;99.90;;;;;;4971251;28;20099;-80
2024/01/27 07:29:30;;;;;;;16.83;7.83;;;0.60;99.90;;;;;;4954102;28;20035;-83
2024/01/27 07:31:56;;;;;;;18.63;8.17;;;0.60;99.90;;;;;;4953892;28;20042;-82
2024/01/27 07:34:22;;;;;;;15.17;7.77;;;0.60;99.90;;;;;;4955190;28;20031;-82
2024/01/27 07:36:49;;;;;;;15.13;8.20;;;0.60;99.90;;;;;;4940109;28;20034;-82
2024/01/27 07:39:16;;;;;;;17.20;8.37;;;0.60;99.90;;;;;;4938801;28;20054;-83
2024/01/27 07:41:42;;;;;;;15.03;8.73;;;0.70;99.90;;;;;;4939880;28;20035;-79
2024/01/27 07:44:10;;;;;;;15.00;7.93;;;0.70;99.90;;;;;;4938422;29;20042;-83
2024/01/27 07:46:40;;;;;;;16.00;8.00;;;0.70;99.90;;;;;;4953686;28;20043;-83
2024/01/27 07:49:07;;;;;;;16.30;8.37;;;0.80;99.90;;;;;;4970807;28;20482;-83
2024/01/27 07:51:33;;;;;;;18.23;9.43;;;0.80;99.90;;;;;;4954411;28;20043;-83
2024/01/27 07:54:00;;;;;;;16.33;9.50;;;0.80;99.90;;;;;;4954366;28;20035;-80
2024/01/27 07:56:27;;;;;;;20.47;10.37;;;0.90;99.90;;;;;;4954017;28;20732;-83
2024/01/27 07:58:53;;;;;;;20.13;9.97;;;1.00;99.90;;;;;;4954828;28;20031;-83
2024/01/27 08:01:20;;;;;;;28.40;17.27;;;1.00;99.90;;;;;;4970536;28;20027;-83
2024/01/27 08:03:46;;;;;;;25.23;16.27;;;1.00;99.90;;;;;;4970830;28;20115;-82
2024/01/27 08:06:18;;;;;;;26.57;14.70;;;1.10;99.90;;;;;;4954233;28;20035;-82
2024/01/27 08:08:48;;;;;;;24.77;14.33;;;1.20;99.90;;;;;;4954022;28;20487;-83
2024/01/27 08:11:15;;;;;;;20.63;12.97;;;1.20;99.90;;;;;;4970679;28;20039;-83
2024/01/27 08:13:42;;;;;;;24.70;12.00;;;1.30;99.90;;;;;;4970758;28;20405;-82
2024/01/27 08:16:09;;;;;;;24.03;12.33;;;1.30;99.90;;;;;;4970913;28;20470;-83
2024/01/27 08:18:36;;;;;;;26.10;11.73;;;1.40;99.90;;;;;;4970775;28;20039;-79
2024/01/27 08:21:03;;;;;;;22.87;13.33;;;1.40;99.90;;;;;;4953914;28;20054;-85
2024/01/27 08:23:30;;;;;;;24.73;11.60;;;1.50;99.90;;;;;;4938316;28;20042;-83
2024/01/27 08:25:56;;;;;;;20.83;10.87;;;1.60;99.90;;;;;;4954075;28;20039;-83
2024/01/27 08:28:23;;;;;;;14.77;10.07;;;1.70;99.90;;;;;;4952622;28;20039;-81
2024/01/27 08:30:49;;;;;;;20.10;11.23;;;1.70;99.90;;;;;;4939763;28;20475;-83
2024/01/27 08:33:15;;;;;;;28.50;12.23;;;1.80;99.90;;;;;;4937749;28;20042;-83
2024/01/27 08:35:42;;;;;;;23.33;13.07;;;1.90;99.90;;;;;;4939199;28;20036;-81
2024/01/27 08:38:09;;;;;;;22.27;13.13;;;1.90;99.90;;;;;;4941164;28;20039;-81
2024/01/27 08:40:35;;;;;;;27.27;13.17;;;2.00;99.90;;;;;;4971058;28;20050;-82
2024/01/27 08:43:02;;;;;;;19.77;11.87;;;2.10;99.90;;;;;;4970692;28;20046;-81
2024/01/27 08:45:28;;;;;;;21.87;11.57;;;2.20;99.90;;;;;;4970122;28;20066;-83
2024/01/27 08:47:55;;;;;;;19.17;11.80;;;2.30;99.90;;;;;;4938582;28;20023;-83
2024/01/27 08:50:21;;;;;;;21.33;12.47;;;2.40;99.90;;;;;;4967981;28;20525;-81
2024/01/27 08:52:48;;;;;;;21.80;13.57;;;2.40;99.90;;;;;;4951200;28;20039;-82
2024/01/27 08:55:18;;;;;;;26.70;14.33;;;2.50;99.90;;;;;;4952329;28;20115;-82
2024/01/27 08:57:46;;;;;;;21.10;13.03;;;2.60;99.90;;;;;;4936978;28;20035;-80
2024/01/27 09:00:13;;;;;;;25.57;16.17;;;2.60;99.90;;;;;;4969304;28;20035;-82
2024/01/27 09:02:39;;;;;;;24.43;13.97;;;2.70;99.90;;;;;;4936820;28;20430;-83
2024/01/27 09:05:06;;;;;;;23.53;11.80;;;2.80;99.90;;;;;;4936671;28;20054;-83
2024/01/27 09:07:34;;;;;;;21.40;11.77;;;2.90;99.90;;;;;;4938412;28;20491;-80
2024/01/27 09:10:00;;;;;;;20.33;11.93;;;2.90;99.90;;;;;;4937081;28;20039;-82
2024/01/27 09:12:26;;;;;;;21.83;12.63;;;3.00;99.90;;;;;;4967745;28;20403;-83
2024/01/27 09:14:54;;;;;;;19.40;10.70;;;3.00;99.90;;;;;;4954303;28;20424;-82
2024/01/27 09:17:23;;;;;;;17.83;11.93;;;3.10;99.90;;;;;;4953180;28;20377;-83
2024/01/27 09:19:50;;;;;;;29.45;13.98;;;3.30;99.90;;;;;;4968520;28;20984;-80
2024/01/27 09:22:17;;;;;;;21.87;13.33;;;3.30;99.90;;;;;;4969354;28;20031;-84
2024/01/27 09:24:43;;;;;;;27.48;15.32;;;3.40;99.90;;;;;;4969751;28;20035;-83
2024/01/27 09:27:10;;;;;;;22.33;14.50;;;3.50;99.90;;;;;;4941823;28;20073;-79
2024/01/27 09:29:36;;;;;;;25.92;14.43;;;3.50;99.90;;;;;;4969163;28;20252;-82
2024/01/27 09:32:02;;;;;;;24.63;14.57;;;3.60;99.90;;;;;;4969097;28;20031;-83
2024/01/27 09:34:29;;;;;;;22.48;12.93;;;3.60;99.90;;;;;;4952742;28;20038;-83
2024/01/27 09:36:55;;;;;;;19.73;12.07;;;3.70;99.90;;;;;;4937989;28;20398;-83
2024/01/27 09:39:21;;;;;;;19.60;11.10;;;3.60;99.90;;;;;;4953262;28;20039;-80
2024/01/27 09:41:49;;;;;;;17.47;11.47;;;3.70;99.90;;;;;;4969021;28;20031;-83
2024/01/27 09:44:18;;;;;;;29.10;13.93;;;3.60;99.90;;;;;;4948350;28;20035;-83
2024/01/27 09:46:46;;;;;;;19.85;12.18;;;3.60;99.90;;;;;;4950109;28;20514;-83
2024/01/27 09:49:14;;;;;;;18.55;11.57;;;3.60;99.90;;;;;;4950795;28;20054;-84
2024/01/27 09:51:43;;;;;;;23.27;12.70;;;3.60;99.90;;;;;;4952453;28;20561;-84
2024/01/27 09:54:10;;;;;;;23.80;14.67;;;3.70;99.90;;;;;;4938511;28;20346;-84
2024/01/27 09:56:37;;;;;;;23.75;14.15;;;3.70;99.90;;;;;;4950688;28;20044;-81
2024/01/27 09:59:05;;;;;;;24.83;14.73;;;3.80;99.90;;;;;;4953589;28;20050;-85
2024/01/27 10:01:33;;;;;;;24.00;14.60;;;3.90;99.90;;;;;;4985473;28;20027;-83
2024/01/27 10:03:59;;;;;;;26.67;15.43;;;3.90;99.90;;;;;;4951024;28;20046;-84
2024/01/27 10:06:26;;;;;;;26.52;16.13;;;4.00;99.90;;;;;;4952828;28;20050;-83
2024/01/27 10:08:55;;;;;;;22.58;13.20;;;4.20;99.90;;;;;;4968552;28;20042;-84
2024/01/27 10:11:24;;;;;;;18.77;10.52;;;4.40;99.90;;;;;;4948285;28;20043;-82
2024/01/27 10:13:59;;;;;;;18.90;10.23;;;4.70;99.90;;;;;;4968089;28;20390;-80
2024/01/27 10:16:27;;;;;;;14.88;7.72;;;5.10;99.90;;;;;;4949343;28;20047;-84
2024/01/27 10:19:01;;;;;;;17.20;7.43;;;5.50;99.90;;;;;;4967377;28;20046;-82
2024/01/27 10:21:28;;;;;;;13.15;7.38;;;5.90;99.90;;;;;;4965910;28;20354;-81
2024/01/27 10:23:54;;;;;;;16.00;6.97;;;6.20;99.90;;;;;;4951707;28;20035;-81
2024/01/27 10:26:20;;;;;;;17.85;7.32;;;6.50;99.90;;;;;;4968330;28;20043;-85
2024/01/27 10:28:57;;;;;;;11.25;6.40;;;6.90;99.90;;;;;;4950305;28;20043;-83
2024/01/27 10:31:33;;;;;;;15.75;5.85;;;7.20;99.90;;;;;;4971307;28;20039;-79
2024/01/27 10:34:09;;;;;;;22.10;7.05;;;7.60;99.90;;;;;;4976117;28;20038;-84
2024/01/27 10:36:42;;;;;;;12.70;6.13;;;7.80;99.90;;;;;;4971214;28;20042;-83
2024/01/27 10:39:22;;;;;;;13.02;6.35;;;8.10;99.90;;;;;;4969201;28;20035;-80
2024/01/27 10:41:50;;;;;;;13.15;6.10;;;8.40;99.90;;;;;;4966407;28;20475;-83
2024/01/27 10:44:18;;;;;;;12.90;5.90;;;8.60;99.90;;;;;;4941422;28;20035;-81
2024/01/27 10:46:48;;;;;;;11.85;5.90;;;8.90;99.90;;;;;;4955525;28;20038;-83
2024/01/27 10:49:17;;;;;;;10.32;5.25;;;9.00;99.90;;;;;;4955162;28;20054;-83
2024/01/27 10:51:46;;;;;;;12.68;6.00;;;9.20;99.90;;;;;;4955273;28;20034;-84
2024/01/27 10:54:23;;;;;;;16.65;5.88;;;9.40;99.90;;;;;;4953618;28;21261;-84
2024/01/27 10:56:53;;;;;;;13.27;5.43;;;9.50;99.90;;;;;;4955442;28;20039;-85
2024/01/27 10:59:21;;;;;;;11.15;5.70;;;9.40;99.90;;;;;;4954510;28;20397;-81
2024/01/27 11:01:52;;;;;;;14.15;6.43;;;9.00;99.90;;;;;;4954023;28;20035;-81
2024/01/27 11:04:23;;;;;;;21.15;7.47;;;8.60;99.90;;;;;;4950630;28;20038;-83
2024/01/27 11:06:49;;;;;;;14.45;6.47;;;8.20;99.90;;;;;;4968468;28;20423;-82
2024/01/27 11:09:18;;;;;;;14.95;7.50;;;7.80;99.90;;;;;;4939133;28;20039;-80
2024/01/27 11:11:47;;;;;;;15.95;8.00;;;7.50;99.90;;;;;;4970525;28;20039;-82
2024/01/27 11:14:13;;;;;;;18.35;9.32;;;7.20;99.90;;;;;;4936067;28;20039;-83
2024/01/27 11:16:43;;;;;;;21.55;8.82;;;7.00;99.90;;;;;;4939234;28;20043;-84
2024/01/27 11:19:11;;;;;;;16.90;7.90;;;6.80;99.90;;;;;;4972019;28;20047;-82
2024/01/27 11:21:38;;;;;;;18.02;7.80;;;6.60;99.90;;;;;;4935090;28;20414;-82
2024/01/27 11:24:18;;;;;;;24.70;9.75;;;6.50;99.90;;;;;;4954588;28;20031;-82
2024/01/27 11:26:45;;;;;;;13.80;7.78;;;6.40;99.90;;;;;;4953796;28;20039;-81
2024/01/27 11:29:19;;;;;;;24.08;8.85;;;6.30;99.90;;;;;;4938966;28;20410;-80
2024/01/27 11:31:46;;;;;;;23.45;9.93;;;6.30;99.90;;;;;;4938078;28;20419;-82
2024/01/27 11:34:16;;;;;;;20.98;8.90;;;6.20;99.90;;;;;;4939752;28;20035;-81
2024/01/27 11:36:43;;;;;;;19.50;8.55;;;6.20;99.90;;;;;;4953114;28;20034;-81
2024/01/27 11:39:30;;;;;;;20.92;8.90;;;6.20;99.90;;;;;;4970251;28;20054;-79
2024/01/27 11:42:06;;;;;;;19.02;8.43;;;6.10;99.90;;;;;;4969940;28;20516;-81
2024/01/27 11:44:36;;;;;;;23.38;9.43;;;6.10;99.90;;;;;;4936279;28;20047;-83
2024/01/27 11:47:03;;;;;;;17.63;8.52;;;6.10;99.90;;;;;;4949355;28;20036;-82
2024/01/27 11:49:30;;;;;;;16.95;8.45;;;6.10;99.90;;;;;;4969517;28;20051;-85
2024/01/27 11:51:56;;;;;;;17.92;8.65;;;6.10;99.90;;;;;;4970305;28;20039;-86
2024/01/27 11:54:23;;;;;;;17.77;7.80;;;6.10;99.90;;;;;;4954788;28;20569;-81
2024/01/27 11:56:50;;;;;;;16.73;7.70;;;6.10;99.90;;;;;;4953468;28;20050;-83
2024/01/27 11:59:16;;;;;;;22.17;8.85;;;6.10;99.90;;;;;;4938983;28;20042;-81
2024/01/27 12:01:42;;;;;;;17.23;8.13;;;6.10;99.90;;;;;;4953668;28;20043;-82
2024/01/27 12:04:10;;;;;;;15.02;7.43;;;6.10;99.90;;;;;;4969611;28;20031;-83
2024/01/27 12:06:37;;;;;;;14.15;6.43;;;6.10;99.90;;;;;;4953942;28;20043;-83
2024/01/27 12:09:03;;;;;;;19.95;7.53;;;6.20;99.90;;;;;;4986327;28;20035;-80
2024/01/27 12:11:31;;;;;;;16.23;7.68;;;6.20;99.90;;;;;;4981821;28;20038;-85
2024/01/27 12:13:57;;;;;;;17.83;7.28;;;6.20;99.90;;;;;;4965680;28;20044;-82
2024/01/27 12:16:24;;;;;;;15.23;6.22;;;6.30;99.90;;;;;;4968608;28;20050;-80
2024/01/27 12:18:56;;;;;;;14.88;6.60;;;6.30;99.90;;;;;;4969796;28;20035;-83
2024/01/27 12:21:23;;;;;;;15.63;6.10;;;6.30;99.90;;;;;;4969400;28;20039;-85
2024/01/27 12:23:54;;;;;;;16.52;7.05;;;6.30;99.90;;;;;;4968790;28;20051;-82
2024/01/27 12:26:22;;;;;;;12.63;6.22;;;6.40;99.90;;;;;;4953951;28;20035;-84
2024/01/27 12:28:49;;;;;;;14.13;5.20;;;6.40;99.90;;;;;;4976547;28;20054;-82
2024/01/27 12:31:17;;;;;;;15.75;6.53;;;6.40;99.90;;;;;;4959729;28;20039;-83
2024/01/27 12:33:59;;;;;;;14.98;5.47;;;6.40;99.90;;;;;;4969178;28;20035;-82
2024/01/27 12:36:25;;;;;;;17.05;5.85;;;6.50;99.90;;;;;;4938104;28;20031;-82
2024/01/27 12:38:57;;;;;;;26.33;6.95;;;6.50;99.90;;;;;;4953362;28;20035;-82
2024/01/27 12:41:27;;;;;;;16.95;5.30;;;6.50;99.90;;;;;;4938511;28;20023;-80
2024/01/27 12:43:55;;;;;;;17.15;6.03;;;6.60;99.90;;;;;;4970219;28;20341;-84
2024/01/27 12:46:22;;;;;;;13.65;5.88;;;6.60;99.90;;;;;;4969435;28;20503;-84